Miwa Maru No.3 — JD4170 — position and weather

sailwx.info

Track history (hours):
 
Tides and Currents Weather Stations Pressure Air Temp Water Temp Dewpoint Dewpoint Depression Visibility Wind Speed Wind Dir Waves Ship Positions

Miwa Maru No.3

Last reported at 2017-Nov-17 03:05 UTC. Time now 2017-Nov-20 15:29 UTC.
Position N 34°37' E 134°56'.

Length 62 m; draft 3.5 m.

Type: Cargo ship. MMSI: 431009245.

Date/timePositionNaut miles runAvg speedWind from/ knotsBaromVisibWave heightAir tempDewpointWater temp
2017-Nov-17 03:05N 34°37' E 134°56'110.6
2017-Nov-17 03:00N 34°37' E 134°57'510.3
2017-Nov-17 02:30N 34°37' E 135°03'510.9
2017-Nov-17 02:00N 34°36' E 135°09'612.3
2017-Nov-17 01:30N 34°37' E 135°17'612.2
2017-Nov-17 01:00N 34°36' E 135°24'2 2.7
2017-Nov-17 00:24N 34°35' E 135°26'0 0.0
2017-Nov-16 23:12N 34°35' E 135°26'0 0.0
2017-Nov-16 23:00N 34°35' E 135°26'2 0.1
2017-Nov-16 04:45N 34°35' E 135°27'1 3.8
2017-Nov-16 04:30N 34°35' E 135°26'510.8
2017-Nov-16 04:00N 34°36' E 135°20'611.9
2017-Nov-16 03:30N 34°35' E 135°13'612.8
2017-Nov-16 03:00N 34°35' E 135°05'913.1
2017-Nov-16 02:21N 34°37' E 134°55'  
Track history (hours):
 
Tides and Currents Weather Stations Pressure Air Temp Water Temp Dewpoint Dewpoint Depression Visibility Wind Speed Wind Dir Waves Ship Positions

Miwa Maru No.3

Last reported at 2017-Nov-17 03:05 UTC. Time now 2017-Nov-20 15:29 UTC.
Position N 34°37' E 134°56'.

Length 62 m; draft 3.5 m.

Type: Cargo ship. MMSI: 431009245.

Date/timePositionNaut miles runAvg speedWind from/ knotsBaromVisibWave heightAir tempDewpointWater temp
2017-Nov-17 03:05N 34°37' E 134°56'110.6
2017-Nov-17 03:00N 34°37' E 134°57'510.3
2017-Nov-17 02:30N 34°37' E 135°03'510.9
2017-Nov-17 02:00N 34°36' E 135°09'612.3
2017-Nov-17 01:30N 34°37' E 135°17'612.2
2017-Nov-17 01:00N 34°36' E 135°24'2 2.7
2017-Nov-17 00:24N 34°35' E 135°26'0 0.0
2017-Nov-16 23:12N 34°35' E 135°26'0 0.0
2017-Nov-16 23:00N 34°35' E 135°26'2 0.1
2017-Nov-16 04:45N 34°35' E 135°27'1 3.8
2017-Nov-16 04:30N 34°35' E 135°26'510.8
2017-Nov-16 04:00N 34°36' E 135°20'611.9
2017-Nov-16 03:30N 34°35' E 135°13'612.8
2017-Nov-16 03:00N 34°35' E 135°05'913.1
2017-Nov-16 02:21N 34°37' E 134°55'  

Dump ship's entire track history